createdAt,value
2023-03-31T00:03:44.387Z,12.38
2023-03-31T00:08:41.432Z,12.34
2023-03-31T00:13:40.073Z,12.32
2023-03-31T00:18:37.540Z,12.32
2023-03-31T00:23:34.253Z,12.32
2023-03-31T00:28:30.851Z,12.34
2023-03-31T00:33:27.881Z,12.31
2023-03-31T00:38:24.400Z,12.29
2023-03-31T00:43:28.886Z,12.21
2023-03-31T00:48:25.399Z,12.16
2023-03-31T00:53:25.740Z,12.12
2023-03-31T00:58:28.292Z,12.09
2023-03-31T01:03:25.252Z,12.06
2023-03-31T01:08:25.900Z,12.03
2023-03-31T01:13:24.199Z,12.00
2023-03-31T01:18:21.987Z,12.00
2023-03-31T01:23:37.573Z,12.03
2023-03-31T01:28:36.947Z,12.04
2023-03-31T01:33:59.766Z,12.06
2023-03-31T01:39:19.813Z,12.08
2023-03-31T01:44:41.185Z,12.11
2023-03-31T01:49:49.344Z,12.13
2023-03-31T01:54:54.558Z,12.16
2023-03-31T01:59:59.283Z,12.16
2023-03-31T02:04:59.409Z,12.15
2023-03-31T02:09:59.391Z,12.15
2023-03-31T02:14:57.005Z,12.12
2023-03-31T02:19:53.722Z,12.12
2023-03-31T02:24:50.969Z,12.09
2023-03-31T02:29:48.341Z,12.04
2023-03-31T02:34:44.947Z,11.98
2023-03-31T02:39:43.458Z,11.98
2023-03-31T02:44:40.316Z,11.99
2023-03-31T02:49:39.932Z,12.03
2023-03-31T02:54:36.470Z,12.04
2023-03-31T02:59:51.410Z,12.01
2023-03-31T03:05:13.519Z,11.99
2023-03-31T03:10:15.790Z,11.99
2023-03-31T03:15:25.993Z,11.98
2023-03-31T03:20:22.955Z,11.96
2023-03-31T03:25:20.761Z,11.96
2023-03-31T03:30:17.397Z,11.97
2023-03-31T03:35:14.351Z,11.98
2023-03-31T03:40:11.133Z,11.97
2023-03-31T03:45:07.750Z,11.94
2023-03-31T03:50:05.117Z,11.93
2023-03-31T03:55:05.740Z,11.92
2023-03-31T04:00:02.260Z,11.92
2023-03-31T04:04:58.817Z,11.91
2023-03-31T04:09:55.538Z,11.94
2023-03-31T04:14:51.959Z,11.95
2023-03-31T04:19:50.817Z,11.96
2023-03-31T04:24:52.788Z,11.97
2023-03-31T04:29:54.867Z,11.97
2023-03-31T04:34:51.614Z,11.98
2023-03-31T04:39:50.612Z,11.97
2023-03-31T04:44:47.190Z,11.99
2023-03-31T04:49:44.862Z,12.01
2023-03-31T04:54:41.514Z,11.99
2023-03-31T04:59:37.916Z,11.99
2023-03-31T05:04:34.503Z,11.99
2023-03-31T05:09:31.061Z,12.01
2023-03-31T05:14:28.029Z,12.06
2023-03-31T05:19:24.639Z,12.08
2023-03-31T05:24:21.484Z,12.10
2023-03-31T05:29:21.799Z,12.12
2023-03-31T05:34:18.466Z,12.14
2023-03-31T05:39:14.960Z,12.11
2023-03-31T05:44:11.840Z,12.11
2023-03-31T05:49:08.648Z,12.11
2023-03-31T05:54:06.249Z,12.13
2023-03-31T05:59:03.265Z,12.14
2023-03-31T11:43:46.229Z,13.63
2023-03-31T11:49:11.020Z,13.70
2023-03-31T13:37:26.278Z,13.54
2023-03-31T13:42:46.409Z,13.63
2023-03-31T13:47:48.756Z,13.71
2023-03-31T13:52:53.388Z,13.82
2023-03-31T13:58:24.931Z,13.94
2023-03-31T14:03:34.067Z,14.08
2023-03-31T14:08:45.745Z,14.17
2023-03-31T14:13:43.329Z,14.16
2023-03-31T14:18:45.350Z,14.12
2023-03-31T14:24:02.085Z,14.14
2023-03-31T14:29:11.393Z,14.02
2023-03-31T14:34:19.303Z,14.18
2023-03-31T14:39:23.282Z,14.07
2023-03-31T14:44:40.164Z,14.12
2023-03-31T14:49:42.549Z,14.25
2023-03-31T14:54:51.277Z,14.29
2023-03-31T14:59:50.892Z,14.26
2023-03-31T15:04:49.649Z,14.27
2023-03-31T15:09:50.044Z,14.31
2023-03-31T15:14:49.391Z,14.39
2023-03-31T15:19:46.078Z,14.48
2023-03-31T15:24:42.510Z,14.56
2023-03-31T15:29:41.619Z,14.61
2023-03-31T15:34:38.205Z,14.54
2023-03-31T15:39:36.368Z,14.61
2023-03-31T15:45:17.789Z,14.56
2023-03-31T15:50:15.840Z,14.48
2023-03-31T15:55:31.079Z,14.40
2023-03-31T16:00:34.050Z,14.37
2023-03-31T16:05:53.567Z,14.34
2023-03-31T21:40:01.168Z,12.54
2023-03-31T21:44:58.913Z,12.59
2023-03-31T21:49:55.791Z,12.60
2023-03-31T22:01:12.214Z,12.61
2023-03-31T22:06:11.198Z,12.48
2023-03-31T22:11:08.919Z,12.53
2023-03-31T22:16:10.786Z,12.49
2023-03-31T22:21:19.476Z,12.47
2023-03-31T22:26:16.101Z,12.42
2023-03-31T22:31:12.489Z,12.43
2023-03-31T22:36:09.084Z,12.36
2023-03-31T22:41:05.412Z,12.35
2023-03-31T22:46:04.001Z,12.27
2023-03-31T22:51:09.082Z,12.19
2023-03-31T22:56:13.455Z,12.22
2023-03-31T23:01:16.480Z,12.25
2023-03-31T23:06:15.700Z,12.26
2023-03-31T23:11:13.291Z,12.24
2023-03-31T23:16:17.013Z,12.25
2023-03-31T23:21:28.540Z,12.25
2023-03-31T23:26:26.292Z,12.26
2023-03-31T23:31:37.989Z,12.22
2023-03-31T23:36:35.518Z,12.28
2023-03-31T23:46:44.553Z,12.24
2023-03-31T23:51:42.181Z,12.15
2023-03-31T23:56:46.956Z,12.20
